sensor_id;sensor_type;location;lat;lon;timestamp;pressure;altitude;pressure_sealevel;temperature;humidity
38197;BME280;26543;51.976;4.616;2023-08-20T00:01:32;52585.66;;;-140.72;0.00
38197;BME280;26543;51.976;4.616;2023-08-20T00:03:58;52585.66;;;-140.72;0.00
38197;BME280;26543;51.976;4.616;2023-08-20T00:06:24;52616.09;;;-140.72;0.00
38197;BME280;26543;51.976;4.616;2023-08-20T00:08:51;52569.44;;;-140.72;0.00
38197;BME280;26543;51.976;4.616;2023-08-20T00:11:16;52593.78;;;-140.72;0.00
38197;BME280;26543;51.976;4.616;2023-08-20T00:13:51;52573.50;;;-140.72;0.00
38197;BME280;26543;51.976;4.616;2023-08-20T00:16:16;52589.72;;;-140.72;0.00
38197;BME280;26543;51.976;4.616;2023-08-20T00:18:43;52612.03;;;-140.72;0.00
38197;BME280;26543;51.976;4.616;2023-08-20T00:21:09;52605.94;;;-140.72;0.00
38197;BME280;26543;51.976;4.616;2023-08-20T00:23:35;52624.22;;;-140.72;0.00
38197;BME280;26543;51.976;4.616;2023-08-20T00:26:00;52585.66;;;-140.72;0.00
38197;BME280;26543;51.976;4.616;2023-08-20T00:28:27;52603.94;;;-140.72;0.00
38197;BME280;26543;51.976;4.616;2023-08-20T00:30:52;52573.50;;;-140.72;0.00
38197;BME280;26543;51.976;4.616;2023-08-20T00:33:17;52612.03;;;-140.72;0.00
38197;BME280;26543;51.976;4.616;2023-08-20T00:35:43;52607.97;;;-140.72;0.00
38197;BME280;26543;51.976;4.616;2023-08-20T00:38:08;52610.00;;;-140.72;0.00
38197;BME280;26543;51.976;4.616;2023-08-20T00:40:33;52575.50;;;-140.72;0.00
38197;BME280;26543;51.976;4.616;2023-08-20T00:42:58;52610.00;;;-140.72;0.00
38197;BME280;26543;51.976;4.616;2023-08-20T00:45:24;52612.03;;;-140.72;0.00
38197;BME280;26543;51.976;4.616;2023-08-20T00:47:50;52585.66;;;-140.72;0.00
38197;BME280;26543;51.976;4.616;2023-08-20T00:50:15;52597.84;;;-140.72;0.00
38197;BME280;26543;51.976;4.616;2023-08-20T00:52:41;52547.09;;;-140.72;0.00
38197;BME280;26543;51.976;4.616;2023-08-20T00:55:07;52591.75;;;-140.72;0.00
38197;BME280;26543;51.976;4.616;2023-08-20T00:57:33;52585.66;;;-140.72;0.00
38197;BME280;26543;51.976;4.616;2023-08-20T00:59:59;52585.66;;;-140.72;0.00
38197;BME280;26543;51.976;4.616;2023-08-20T01:02:24;52612.03;;;-140.72;0.00
38197;BME280;26543;51.976;4.616;2023-08-20T01:04:50;52573.50;;;-140.72;0.00
38197;BME280;26543;51.976;4.616;2023-08-20T01:12:12;52638.41;;;-140.72;0.00
38197;BME280;26543;51.976;4.616;2023-08-20T01:14:38;52616.09;;;-140.72;0.00
38197;BME280;26543;51.976;4.616;2023-08-20T01:17:03;52597.84;;;-140.72;0.00
38197;BME280;26543;51.976;4.616;2023-08-20T01:19:28;52605.94;;;-140.72;0.00
38197;BME280;26543;51.976;4.616;2023-08-20T01:24:33;52551.16;;;-140.72;0.00
38197;BME280;26543;51.976;4.616;2023-08-20T01:29:48;52620.16;;;-140.72;0.00
38197;BME280;26543;51.976;4.616;2023-08-20T01:32:14;52599.88;;;-140.72;0.00
38197;BME280;26543;51.976;4.616;2023-08-20T01:34:39;52628.28;;;-140.72;0.00
38197;BME280;26543;51.976;4.616;2023-08-20T01:37:05;52614.06;;;-140.72;0.00
38197;BME280;26543;51.976;4.616;2023-08-20T01:39:30;52601.91;;;-140.72;0.00
38197;BME280;26543;51.976;4.616;2023-08-20T01:41:55;52581.59;;;-140.72;0.00
38197;BME280;26543;51.976;4.616;2023-08-20T01:44:20;52605.94;;;-140.72;2.86
38197;BME280;26543;51.976;4.616;2023-08-20T01:46:47;52610.00;;;-140.72;9.48
38197;BME280;26543;51.976;4.616;2023-08-20T01:49:12;52616.09;;;-140.72;16.56
38197;BME280;26543;51.976;4.616;2023-08-20T01:51:37;52605.94;;;-140.72;23.73
38197;BME280;26543;51.976;4.616;2023-08-20T01:54:02;52585.66;;;-140.72;27.25
38197;BME280;26543;51.976;4.616;2023-08-20T01:56:28;52599.88;;;-140.72;35.60
38197;BME280;26543;51.976;4.616;2023-08-20T01:58:53;52650.59;;;-140.72;42.10
38197;BME280;26543;51.976;4.616;2023-08-20T02:01:18;52612.03;;;-140.72;42.83
38197;BME280;26543;51.976;4.616;2023-08-20T02:03:43;52634.38;;;-140.72;50.22
38197;BME280;26543;51.976;4.616;2023-08-20T02:06:08;52626.25;;;-140.72;59.74
38197;BME280;26543;51.976;4.616;2023-08-20T02:08:34;52634.38;;;-140.72;67.12
38197;BME280;26543;51.976;4.616;2023-08-20T02:11:02;52630.31;;;-140.72;67.40
38197;BME280;26543;51.976;4.616;2023-08-20T02:13:28;52624.22;;;-140.72;69.90
38197;BME280;26543;51.976;4.616;2023-08-20T02:16:00;52644.50;;;-140.72;74.39
38197;BME280;26543;51.976;4.616;2023-08-20T02:18:25;52646.53;;;-140.72;80.63
38197;BME280;26543;51.976;4.616;2023-08-20T02:20:51;52626.25;;;-140.72;85.88
38197;BME280;26543;51.976;4.616;2023-08-20T02:23:16;52654.66;;;-140.72;90.85
38197;BME280;26543;51.976;4.616;2023-08-20T02:28:40;52601.91;;;-140.72;100.00
38197;BME280;26543;51.976;4.616;2023-08-20T02:31:11;52634.38;;;-140.72;100.00
38197;BME280;26543;51.976;4.616;2023-08-20T02:33:36;52634.38;;;-140.72;100.00
38197;BME280;26543;51.976;4.616;2023-08-20T02:36:02;52683.06;;;-140.72;100.00
38197;BME280;26543;51.976;4.616;2023-08-20T02:38:28;52626.25;;;-140.72;100.00
38197;BME280;26543;51.976;4.616;2023-08-20T02:40:55;52662.78;;;-140.72;100.00
38197;BME280;26543;51.976;4.616;2023-08-20T02:43:21;52644.50;;;-140.72;100.00
38197;BME280;26543;51.976;4.616;2023-08-20T02:45:46;52640.44;;;-140.72;100.00
38197;BME280;26543;51.976;4.616;2023-08-20T02:48:11;52654.66;;;-140.72;100.00
38197;BME280;26543;51.976;4.616;2023-08-20T02:50:37;52668.84;;;-140.72;100.00
38197;BME280;26543;51.976;4.616;2023-08-20T02:53:02;52672.91;;;-140.72;100.00
38197;BME280;26543;51.976;4.616;2023-08-20T02:55:28;52691.19;;;-140.72;100.00
38197;BME280;26543;51.976;4.616;2023-08-20T02:57:53;52668.84;;;-140.72;100.00
38197;BME280;26543;51.976;4.616;2023-08-20T03:00:19;52668.84;;;-140.72;100.00
38197;BME280;26543;51.976;4.616;2023-08-20T03:02:44;52674.94;;;-140.72;100.00
38197;BME280;26543;51.976;4.616;2023-08-20T03:05:09;52679.00;;;-140.72;100.00
38197;BME280;26543;51.976;4.616;2023-08-20T03:07:35;52656.69;;;-140.72;100.00
38197;BME280;26543;51.976;4.616;2023-08-20T03:10:00;52658.72;;;-140.72;100.00
38197;BME280;26543;51.976;4.616;2023-08-20T03:12:25;52630.31;;;-140.72;100.00
38197;BME280;26543;51.976;4.616;2023-08-20T03:14:50;52703.34;;;-140.72;100.00
38197;BME280;26543;51.976;4.616;2023-08-20T03:17:16;52670.88;;;-140.72;100.00
38197;BME280;26543;51.976;4.616;2023-08-20T03:19:53;52658.72;;;-140.72;100.00
38197;BME280;26543;51.976;4.616;2023-08-20T03:22:18;52687.13;;;-140.72;100.00
38197;BME280;26543;51.976;4.616;2023-08-20T03:24:43;52654.66;;;-140.72;100.00
38197;BME280;26543;51.976;4.616;2023-08-20T03:27:08;52705.38;;;-140.72;100.00
38197;BME280;26543;51.976;4.616;2023-08-20T03:29:34;52664.81;;;-140.72;100.00
38197;BME280;26543;51.976;4.616;2023-08-20T03:31:59;52640.44;;;-140.72;100.00
38197;BME280;26543;51.976;4.616;2023-08-20T03:34:24;52674.94;;;-140.72;100.00
38197;BME280;26543;51.976;4.616;2023-08-20T03:36:49;52679.00;;;-140.72;100.00
38197;BME280;26543;51.976;4.616;2023-08-20T03:39:14;52709.44;;;-140.72;100.00
38197;BME280;26543;51.976;4.616;2023-08-20T03:41:40;52679.00;;;-140.72;100.00
38197;BME280;26543;51.976;4.616;2023-08-20T03:44:05;52670.88;;;-140.72;100.00
38197;BME280;26543;51.976;4.616;2023-08-20T03:46:30;52666.84;;;-140.72;100.00
38197;BME280;26543;51.976;4.616;2023-08-20T03:48:56;52679.00;;;-140.72;100.00
38197;BME280;26543;51.976;4.616;2023-08-20T03:51:21;52664.81;;;-140.72;100.00
38197;BME280;26543;51.976;4.616;2023-08-20T03:53:46;52679.00;;;-140.72;100.00
38197;BME280;26543;51.976;4.616;2023-08-20T03:56:11;52731.75;;;-140.72;100.00
38197;BME280;26543;51.976;4.616;2023-08-20T03:58:36;52674.94;;;-140.72;100.00
38197;BME280;26543;51.976;4.616;2023-08-20T04:01:02;52683.06;;;-140.72;100.00
38197;BME280;26543;51.976;4.616;2023-08-20T04:03:28;52652.63;;;-140.72;100.00
38197;BME280;26543;51.976;4.616;2023-08-20T04:05:53;52674.94;;;-140.72;100.00
38197;BME280;26543;51.976;4.616;2023-08-20T04:08:19;52672.91;;;-140.72;100.00
38197;BME280;26543;51.976;4.616;2023-08-20T04:10:44;52697.28;;;-140.72;100.00
38197;BME280;26543;51.976;4.616;2023-08-20T04:13:10;52693.22;;;-140.72;100.00
38197;BME280;26543;51.976;4.616;2023-08-20T04:15:36;52709.44;;;-140.72;100.00
38197;BME280;26543;51.976;4.616;2023-08-20T04:18:01;52679.00;;;-140.72;100.00
38197;BME280;26543;51.976;4.616;2023-08-20T04:20:27;52674.94;;;-140.72;100.00
38197;BME280;26543;51.976;4.616;2023-08-20T04:22:52;52676.97;;;-140.72;100.00
38197;BME280;26543;51.976;4.616;2023-08-20T04:25:17;52711.47;;;-140.72;100.00
38197;BME280;26543;51.976;4.616;2023-08-20T04:27:42;52679.00;;;-140.72;100.00
38197;BME280;26543;51.976;4.616;2023-08-20T04:30:08;52689.16;;;-140.72;100.00
38197;BME280;26543;51.976;4.616;2023-08-20T04:32:34;52719.59;;;-140.72;100.00
38197;BME280;26543;51.976;4.616;2023-08-20T04:34:59;52707.41;;;-140.72;100.00
38197;BME280;26543;51.976;4.616;2023-08-20T04:37:24;52729.75;;;-140.72;100.00
38197;BME280;26543;51.976;4.616;2023-08-20T04:39:49;52679.00;;;-140.72;100.00
38197;BME280;26543;51.976;4.616;2023-08-20T04:42:15;52713.50;;;-140.72;100.00
38197;BME280;26543;51.976;4.616;2023-08-20T04:44:40;52709.44;;;-140.72;100.00
38197;BME280;26543;51.976;4.616;2023-08-20T04:47:05;52703.34;;;-140.72;100.00
38197;BME280;26543;51.976;4.616;2023-08-20T04:49:30;52719.59;;;-140.72;100.00
38197;BME280;26543;51.976;4.616;2023-08-20T04:51:56;52733.78;;;-140.72;100.00
38197;BME280;26543;51.976;4.616;2023-08-20T04:54:21;52691.19;;;-140.72;100.00
38197;BME280;26543;51.976;4.616;2023-08-20T04:56:46;52681.03;;;-140.72;100.00
38197;BME280;26543;51.976;4.616;2023-08-20T04:59:12;52711.47;;;-140.72;100.00
38197;BME280;26543;51.976;4.616;2023-08-20T05:01:38;52656.69;;;-140.72;100.00
38197;BME280;26543;51.976;4.616;2023-08-20T05:04:03;52707.41;;;-140.72;100.00
38197;BME280;26543;51.976;4.616;2023-08-20T05:06:28;52719.59;;;-140.72;100.00
38197;BME280;26543;51.976;4.616;2023-08-20T05:08:53;52681.03;;;-140.72;100.00
38197;BME280;26543;51.976;4.616;2023-08-20T05:11:19;52666.84;;;-140.72;100.00
38197;BME280;26543;51.976;4.616;2023-08-20T05:13:45;52679.00;;;-140.72;100.00
38197;BME280;26543;51.976;4.616;2023-08-20T05:16:10;52676.97;;;-140.72;100.00
38197;BME280;26543;51.976;4.616;2023-08-20T05:18:35;52676.97;;;-140.72;100.00
38197;BME280;26543;51.976;4.616;2023-08-20T05:21:01;52699.31;;;-140.72;100.00
38197;BME280;26543;51.976;4.616;2023-08-20T05:23:26;52693.22;;;-140.72;100.00
38197;BME280;26543;51.976;4.616;2023-08-20T05:25:52;52691.19;;;-140.72;100.00
38197;BME280;26543;51.976;4.616;2023-08-20T05:28:17;52711.47;;;-140.72;100.00
38197;BME280;26543;51.976;4.616;2023-08-20T05:30:43;52697.28;;;-140.72;100.00
38197;BME280;26543;51.976;4.616;2023-08-20T05:33:08;52689.16;;;-140.72;100.00
38197;BME280;26543;51.976;4.616;2023-08-20T05:35:50;52721.63;;;-140.72;100.00
38197;BME280;26543;51.976;4.616;2023-08-20T05:38:16;52683.06;;;-140.72;100.00
38197;BME280;26543;51.976;4.616;2023-08-20T05:40:41;52636.38;;;-140.72;100.00
38197;BME280;26543;51.976;4.616;2023-08-20T05:43:06;52691.19;;;-140.72;100.00
38197;BME280;26543;51.976;4.616;2023-08-20T05:45:32;52672.91;;;-140.72;100.00
38197;BME280;26543;51.976;4.616;2023-08-20T05:47:57;52674.94;;;-140.72;100.00
38197;BME280;26543;51.976;4.616;2023-08-20T05:50:22;52725.69;;;-140.72;100.00
38197;BME280;26543;51.976;4.616;2023-08-20T05:52:48;52703.34;;;-140.72;100.00
38197;BME280;26543;51.976;4.616;2023-08-20T05:55:13;52683.06;;;-140.72;100.00
38197;BME280;26543;51.976;4.616;2023-08-20T05:57:39;52670.88;;;-140.72;100.00
38197;BME280;26543;51.976;4.616;2023-08-20T06:00:04;52672.91;;;-140.72;100.00
38197;BME280;26543;51.976;4.616;2023-08-20T06:02:29;52685.09;;;-140.72;100.00
38197;BME280;26543;51.976;4.616;2023-08-20T06:04:55;52666.84;;;-140.72;100.00
38197;BME280;26543;51.976;4.616;2023-08-20T06:07:20;52674.94;;;-140.72;100.00
38197;BME280;26543;51.976;4.616;2023-08-20T06:09:45;52654.66;;;-140.72;100.00
38197;BME280;26543;51.976;4.616;2023-08-20T06:12:11;52674.94;;;-140.72;100.00
38197;BME280;26543;51.976;4.616;2023-08-20T06:14:36;52672.91;;;-140.72;100.00
38197;BME280;26543;51.976;4.616;2023-08-20T06:17:01;52676.97;;;-140.72;100.00
38197;BME280;26543;51.976;4.616;2023-08-20T06:19:27;52650.59;;;-140.72;100.00
38197;BME280;26543;51.976;4.616;2023-08-20T06:21:52;52664.81;;;-140.72;100.00
38197;BME280;26543;51.976;4.616;2023-08-20T06:24:17;52620.16;;;-140.72;100.00
38197;BME280;26543;51.976;4.616;2023-08-20T06:26:43;52642.47;;;-140.72;100.00
38197;BME280;26543;51.976;4.616;2023-08-20T06:29:09;52620.16;;;-140.72;100.00
38197;BME280;26543;51.976;4.616;2023-08-20T06:31:35;52660.75;;;-140.72;100.00
38197;BME280;26543;51.976;4.616;2023-08-20T06:34:00;52610.00;;;-140.72;100.00
38197;BME280;26543;51.976;4.616;2023-08-20T06:36:25;52620.16;;;-140.72;100.00
38197;BME280;26543;51.976;4.616;2023-08-20T06:38:50;52664.81;;;-140.72;100.00
38197;BME280;26543;51.976;4.616;2023-08-20T06:41:16;52632.34;;;-140.72;100.00
38197;BME280;26543;51.976;4.616;2023-08-20T06:43:41;52636.38;;;-140.72;100.00
38197;BME280;26543;51.976;4.616;2023-08-20T06:46:07;52605.94;;;-140.72;100.00
38197;BME280;26543;51.976;4.616;2023-08-20T06:48:32;52605.94;;;-140.72;100.00
38197;BME280;26543;51.976;4.616;2023-08-20T06:50:57;52614.06;;;-140.72;100.00
38197;BME280;26543;51.976;4.616;2023-08-20T06:53:23;52587.69;;;-140.72;100.00
38197;BME280;26543;51.976;4.616;2023-08-20T06:55:48;52630.31;;;-140.72;100.00
38197;BME280;26543;51.976;4.616;2023-08-20T06:58:13;52601.91;;;-140.72;100.00
38197;BME280;26543;51.976;4.616;2023-08-20T07:00:38;52622.19;;;-140.72;100.00
38197;BME280;26543;51.976;4.616;2023-08-20T07:03:03;52597.84;;;-140.72;100.00
38197;BME280;26543;51.976;4.616;2023-08-20T07:05:29;52616.09;;;-140.72;100.00
38197;BME280;26543;51.976;4.616;2023-08-20T07:07:54;52589.72;;;-140.72;100.00
38197;BME280;26543;51.976;4.616;2023-08-20T07:10:19;52610.00;;;-140.72;100.00
38197;BME280;26543;51.976;4.616;2023-08-20T07:12:44;52565.38;;;-140.72;100.00
38197;BME280;26543;51.976;4.616;2023-08-20T07:15:10;52605.94;;;-140.72;100.00
38197;BME280;26543;51.976;4.616;2023-08-20T07:17:36;52605.94;;;-140.72;100.00
38197;BME280;26543;51.976;4.616;2023-08-20T07:20:01;52593.78;;;-140.72;100.00
38197;BME280;26543;51.976;4.616;2023-08-20T07:22:27;52583.63;;;-140.72;100.00
38197;BME280;26543;51.976;4.616;2023-08-20T07:24:53;52575.50;;;-140.72;100.00
38197;BME280;26543;51.976;4.616;2023-08-20T07:27:18;52573.50;;;-140.72;100.00
38197;BME280;26543;51.976;4.616;2023-08-20T07:29:43;52587.69;;;-140.72;95.57
38197;BME280;26543;51.976;4.616;2023-08-20T07:32:08;52581.59;;;-140.72;87.30
38197;BME280;26543;51.976;4.616;2023-08-20T07:34:34;52567.41;;;-140.72;77.68
38197;BME280;26543;51.976;4.616;2023-08-20T07:36:59;52571.47;;;-140.72;66.25
38197;BME280;26543;51.976;4.616;2023-08-20T07:39:24;52532.91;;;-140.72;61.14
38197;BME280;26543;51.976;4.616;2023-08-20T07:41:58;52541.03;;;-140.72;54.92
38197;BME280;26543;51.976;4.616;2023-08-20T07:44:23;52565.38;;;-140.72;46.99
38197;BME280;26543;51.976;4.616;2023-08-20T07:46:48;52541.03;;;-140.72;38.42
38197;BME280;26543;51.976;4.616;2023-08-20T07:49:14;52547.09;;;-140.72;31.02
38197;BME280;26543;51.976;4.616;2023-08-20T07:51:39;52543.03;;;-140.72;7.40
38197;BME280;26543;51.976;4.616;2023-08-20T07:54:04;52541.03;;;-140.72;0.61
38197;BME280;26543;51.976;4.616;2023-08-20T07:56:29;52583.63;;;-140.72;0.00
38197;BME280;26543;51.976;4.616;2023-08-20T07:58:57;52532.91;;;-140.72;0.00
38197;BME280;26543;51.976;4.616;2023-08-20T08:01:22;52563.34;;;-140.72;0.00
38197;BME280;26543;51.976;4.616;2023-08-20T08:03:48;52553.19;;;-140.72;0.00
38197;BME280;26543;51.976;4.616;2023-08-20T08:06:16;52532.91;;;-140.72;0.00
38197;BME280;26543;51.976;4.616;2023-08-20T08:08:42;52536.97;;;-140.72;0.00
38197;BME280;26543;51.976;4.616;2023-08-20T08:11:10;52522.75;;;-140.72;0.00
38197;BME280;26543;51.976;4.616;2023-08-20T08:13:35;52547.09;;;-140.72;0.00
38197;BME280;26543;51.976;4.616;2023-08-20T08:16:01;52482.16;;;-140.72;0.00
38197;BME280;26543;51.976;4.616;2023-08-20T08:18:37;52524.78;;;-140.72;0.00
38197;BME280;26543;51.976;4.616;2023-08-20T08:21:02;52476.09;;;-140.72;0.00
38197;BME280;26543;51.976;4.616;2023-08-20T08:23:28;52472.03;;;-140.72;0.00
38197;BME280;26543;51.976;4.616;2023-08-20T08:25:53;52504.50;;;-140.72;0.00
38197;BME280;26543;51.976;4.616;2023-08-20T08:28:19;52472.03;;;-140.72;0.00
38197;BME280;26543;51.976;4.616;2023-08-20T08:30:44;52480.16;;;-140.72;0.00
38197;BME280;26543;51.976;4.616;2023-08-20T08:33:09;52431.44;;;-140.72;0.00
38197;BME280;26543;51.976;4.616;2023-08-20T08:35:34;52411.16;;;-140.72;0.00
38197;BME280;26543;51.976;4.616;2023-08-20T08:38:09;52431.44;;;-140.72;0.00
38197;BME280;26543;51.976;4.616;2023-08-20T08:40:34;52453.75;;;-140.72;0.00
38197;BME280;26543;51.976;4.616;2023-08-20T08:43:00;52435.50;;;-140.72;0.00
38197;BME280;26543;51.976;4.616;2023-08-20T08:45:25;52407.09;;;-140.72;0.00
38197;BME280;26543;51.976;4.616;2023-08-20T08:47:51;52425.34;;;-140.72;0.00
38197;BME280;26543;51.976;4.616;2023-08-20T08:50:18;52401.00;;;-140.72;0.00
38197;BME280;26543;51.976;4.616;2023-08-20T08:52:53;52378.69;;;-140.72;0.00
38197;BME280;26543;51.976;4.616;2023-08-20T08:55:18;52419.28;;;-140.72;0.00
38197;BME280;26543;51.976;4.616;2023-08-20T08:57:44;52362.44;;;-140.72;0.00
38197;BME280;26543;51.976;4.616;2023-08-20T09:00:09;52364.47;;;-140.72;0.00
38197;BME280;26543;51.976;4.616;2023-08-20T09:02:34;52362.44;;;-140.72;0.00
38197;BME280;26543;51.976;4.616;2023-08-20T09:05:00;52289.41;;;-140.72;0.00
38197;BME280;26543;51.976;4.616;2023-08-20T09:09:57;52275.19;;;-140.72;0.00
38197;BME280;26543;51.976;4.616;2023-08-20T09:12:22;52299.56;;;-140.72;0.00
38197;BME280;26543;51.976;4.616;2023-08-20T09:14:48;52309.69;;;-140.72;0.00
38197;BME280;26543;51.976;4.616;2023-08-20T09:17:14;52285.34;;;-140.72;0.00
38197;BME280;26543;51.976;4.616;2023-08-20T09:19:39;52208.25;;;-140.72;0.00
38197;BME280;26543;51.976;4.616;2023-08-20T09:22:05;52269.13;;;-140.72;0.00
38197;BME280;26543;51.976;4.616;2023-08-20T09:24:40;52220.41;;;-140.72;0.00
38197;BME280;26543;51.976;4.616;2023-08-20T09:27:07;52196.06;;;-140.72;0.00
38197;BME280;26543;51.976;4.616;2023-08-20T09:29:33;52187.97;;;-140.72;0.00
38197;BME280;26543;51.976;4.616;2023-08-20T09:37:32;52167.66;;;-140.72;0.00
38197;BME280;26543;51.976;4.616;2023-08-20T09:39:57;52163.59;;;-140.72;0.00
38197;BME280;26543;51.976;4.616;2023-08-20T09:45:27;52137.22;;;-140.72;0.00
38197;BME280;26543;51.976;4.616;2023-08-20T09:47:56;52121.00;;;-140.72;0.00
38197;BME280;26543;51.976;4.616;2023-08-20T09:50:22;52123.03;;;-140.72;0.00
38197;BME280;26543;51.976;4.616;2023-08-20T09:52:54;52106.78;;;-140.72;0.00
38197;BME280;26543;51.976;4.616;2023-08-20T09:55:21;52056.06;;;-140.72;0.00
38197;BME280;26543;51.976;4.616;2023-08-20T09:57:47;52072.31;;;-140.72;0.00
38197;BME280;26543;51.976;4.616;2023-08-20T10:00:13;52114.91;;;-140.72;0.00
38197;BME280;26543;51.976;4.616;2023-08-20T10:02:38;52068.25;;;-140.72;0.00
38197;BME280;26543;51.976;4.616;2023-08-20T10:05:07;52062.16;;;-140.72;0.00
38197;BME280;26543;51.976;4.616;2023-08-20T10:07:33;52070.28;;;-140.72;0.00
38197;BME280;26543;51.976;4.616;2023-08-20T10:10:04;52086.50;;;-140.72;0.00
38197;BME280;26543;51.976;4.616;2023-08-20T10:12:30;52102.75;;;-140.72;0.00
38197;BME280;26543;51.976;4.616;2023-08-20T10:20:50;52005.34;;;-140.72;0.00
38197;BME280;26543;51.976;4.616;2023-08-20T10:23:17;51972.88;;;-140.72;0.00
38197;BME280;26543;51.976;4.616;2023-08-20T10:25:45;51962.75;;;-140.72;0.00
38197;BME280;26543;51.976;4.616;2023-08-20T10:28:27;51910.00;;;-140.72;0.00
38197;BME280;26543;51.976;4.616;2023-08-20T10:31:09;51932.31;;;-140.72;0.00
38197;BME280;26543;51.976;4.616;2023-08-20T10:33:50;51928.25;;;-140.72;0.00
38197;BME280;26543;51.976;4.616;2023-08-20T10:36:20;51895.78;;;-140.72;0.00
38197;BME280;26543;51.976;4.616;2023-08-20T10:38:53;51901.88;;;-140.72;0.00
38197;BME280;26543;51.976;4.616;2023-08-20T10:41:26;51887.66;;;-140.72;0.00
38197;BME280;26543;51.976;4.616;2023-08-20T10:43:52;51893.75;;;-140.72;0.00
38197;BME280;26543;51.976;4.616;2023-08-20T10:48:47;51903.91;;;-140.72;0.00
38197;BME280;26543;51.976;4.616;2023-08-20T10:56:42;51891.72;;;-140.72;0.00
38197;BME280;26543;51.976;4.616;2023-08-20T10:59:15;51910.00;;;-140.72;0.00
38197;BME280;26543;51.976;4.616;2023-08-20T11:01:45;51912.03;;;-140.72;0.00
38197;BME280;26543;51.976;4.616;2023-08-20T11:04:10;51838.97;;;-140.72;0.00
38197;BME280;26543;51.976;4.616;2023-08-20T11:06:36;51810.56;;;-140.72;0.00
38197;BME280;26543;51.976;4.616;2023-08-20T11:09:02;51798.41;;;-140.72;0.00
38197;BME280;26543;51.976;4.616;2023-08-20T11:11:30;51810.56;;;-140.72;0.00
38197;BME280;26543;51.976;4.616;2023-08-20T11:13:56;51867.38;;;-140.72;0.00
38197;BME280;26543;51.976;4.616;2023-08-20T11:16:21;52086.50;;;-140.72;0.00
38197;BME280;26543;51.976;4.616;2023-08-20T11:18:51;51940.41;;;-140.72;0.00
38197;BME280;26543;51.976;4.616;2023-08-20T11:21:17;51885.66;;;-140.72;0.00
38197;BME280;26543;51.976;4.616;2023-08-20T11:26:25;51806.53;;;-140.72;0.00
38197;BME280;26543;51.976;4.616;2023-08-20T11:28:50;51944.47;;;-140.72;0.00
38197;BME280;26543;51.976;4.616;2023-08-20T11:31:15;51806.53;;;-140.72;0.00
38197;BME280;26543;51.976;4.616;2023-08-20T11:33:40;51776.09;;;-140.72;0.00
38197;BME280;26543;51.976;4.616;2023-08-20T11:36:06;51701.03;;;-140.72;0.00
38197;BME280;26543;51.976;4.616;2023-08-20T11:38:31;51810.56;;;-140.72;0.00
38197;BME280;26543;51.976;4.616;2023-08-20T11:41:01;51784.19;;;-140.72;0.00
38197;BME280;26543;51.976;4.616;2023-08-20T11:43:27;51778.13;;;-140.72;0.00
38197;BME280;26543;51.976;4.616;2023-08-20T11:45:54;51737.53;;;-140.72;0.00
38197;BME280;26543;51.976;4.616;2023-08-20T11:48:19;51717.25;;;-140.72;0.00
38197;BME280;26543;51.976;4.616;2023-08-20T11:50:46;51607.69;;;-140.72;0.00
38197;BME280;26543;51.976;4.616;2023-08-20T11:53:11;51810.56;;;-140.72;0.00
38197;BME280;26543;51.976;4.616;2023-08-20T11:55:37;51936.38;;;-140.72;0.00
38197;BME280;26543;51.976;4.616;2023-08-20T11:58:03;52074.34;;;-140.72;0.00
38197;BME280;26543;51.976;4.616;2023-08-20T12:00:29;52082.44;;;-140.72;0.00
38197;BME280;26543;51.976;4.616;2023-08-20T12:02:55;52133.16;;;-140.72;0.00
38197;BME280;26543;51.976;4.616;2023-08-20T12:05:29;52153.47;;;-140.72;0.00
38197;BME280;26543;51.976;4.616;2023-08-20T12:07:58;52155.50;;;-140.72;0.00
38197;BME280;26543;51.976;4.616;2023-08-20T12:10:25;52228.53;;;-140.72;0.00
38197;BME280;26543;51.976;4.616;2023-08-20T12:12:51;52228.53;;;-140.72;0.00
38197;BME280;26543;51.976;4.616;2023-08-20T12:15:17;52244.78;;;-140.72;0.00
38197;BME280;26543;51.976;4.616;2023-08-20T12:17:44;52279.25;;;-140.72;0.00
38197;BME280;26543;51.976;4.616;2023-08-20T12:20:09;52299.56;;;-140.72;0.00
38197;BME280;26543;51.976;4.616;2023-08-20T12:22:37;52277.22;;;-140.72;0.00
38197;BME280;26543;51.976;4.616;2023-08-20T12:25:03;52273.19;;;-140.72;0.00
38197;BME280;26543;51.976;4.616;2023-08-20T12:27:28;52297.53;;;-140.72;0.00
38197;BME280;26543;51.976;4.616;2023-08-20T12:29:54;52301.59;;;-140.72;0.00
38197;BME280;26543;51.976;4.616;2023-08-20T12:32:19;52279.25;;;-140.72;0.00
38197;BME280;26543;51.976;4.616;2023-08-20T12:34:44;52291.44;;;-140.72;0.00
38197;BME280;26543;51.976;4.616;2023-08-20T12:37:09;52265.06;;;-140.72;0.00
38197;BME280;26543;51.976;4.616;2023-08-20T12:39:35;52283.31;;;-140.72;0.00
38197;BME280;26543;51.976;4.616;2023-08-20T12:42:00;52200.13;;;-140.72;0.00
38197;BME280;26543;51.976;4.616;2023-08-20T12:44:25;52226.50;;;-140.72;0.00
38197;BME280;26543;51.976;4.616;2023-08-20T12:46:51;52232.59;;;-140.72;0.00
38197;BME280;26543;51.976;4.616;2023-08-20T12:49:16;52234.63;;;-140.72;0.00
38197;BME280;26543;51.976;4.616;2023-08-20T12:51:41;52220.41;;;-140.72;0.00
38197;BME280;26543;51.976;4.616;2023-08-20T12:54:07;52208.25;;;-140.72;0.00
38197;BME280;26543;51.976;4.616;2023-08-20T12:56:32;52218.38;;;-140.72;0.00
38197;BME280;26543;51.976;4.616;2023-08-20T12:58:57;52214.34;;;-140.72;0.00
38197;BME280;26543;51.976;4.616;2023-08-20T13:01:23;52208.25;;;-140.72;0.00
38197;BME280;26543;51.976;4.616;2023-08-20T13:03:48;52147.38;;;-140.72;0.00
38197;BME280;26543;51.976;4.616;2023-08-20T13:06:13;52041.88;;;-140.72;0.00
38197;BME280;26543;51.976;4.616;2023-08-20T13:08:39;52094.63;;;-140.72;0.00
38197;BME280;26543;51.976;4.616;2023-08-20T13:11:04;52129.13;;;-140.72;0.00
38197;BME280;26543;51.976;4.616;2023-08-20T13:13:31;52135.19;;;-140.72;0.00
38197;BME280;26543;51.976;4.616;2023-08-20T13:15:57;52098.69;;;-140.72;0.00